METAR Data
IDs: Format: Raw Decoded Include TAF

Data at: 2019 UTC 19 May 2019

PAFE 191856Z AUTO 24003KT 10SM FEW080 BKN100 12/07 A2977 RMK AO2 SLP095 T01170072 $
PAFE 191656Z AUTO 00000KT 10SM SCT080 10/07 A2979 RMK AO2 SLP099 T01000072 $
PAFE 190956Z AUTO 06005KT 10SM CLR 05/04 A2984 RMK AO2 SLP116 T00500044 $
PAFE 190556Z AUTO 32003KT 10SM SCT075 09/09 A2985 RMK AO2 SLP122 60004 T00940089 10139 20094 53000 $
PAFE 182356Z AUTO 06005KT 8SM -RA FEW042 OVC055 13/09 A2986 RMK AO2 SLP124 P0005 60005 T01330094 10156 20133 58002 $
PAFE 182256Z AUTO 00000KT 10SM -RA OVC050 14/08 A2987 RMK AO2 RAE13B38 SLP126 P0000 T01440083 $
PAFE 182056Z AUTO 34003KT 10SM OVC060 13/09 A2987 RMK AO2 RAB06E32 SLP126 P0000 60000 T01330089 58001 $
PAFE 181656Z AUTO 09005KT 10SM OVC049 13/05 A2986 RMK AO2 SLP125 T01330050 $
PAFE 181556Z AUTO 09008KT 10SM SCT048 BKN060 OVC110 13/04 A2986 RMK AO2 SLP122 T01280044 $
PAFE 181156Z AUTO 07004KT 10SM OVC049 09/04 A2983 RMK AO2 SLP114 70003 T00940044 10100 20061 51003 $
PAFE 181056Z AUTO 07006KT 10SM OVC043 09/04 A2983 RMK AO2 SLP114 T00940044 $
PAFE 180956Z AUTO 09003KT 10SM OVC048 08/04 A2982 RMK AO2 SLP111 T00780044 $